北京 の空港の天気 - METARとTAF

北京首都国際空港 ( ZBAA / PEK ) - 中華人民共和国 北京市
飛行場実況気象(Metar)
観測時間02/28 06:00 CST (02/27 22:00 UTC)
風向・風速北 2m/s
視程10km以上
天気現象
なし
気温3℃
湿度41%
気圧1020hPa
METARZBAA 272200Z 36002MPS CAVOK 03/M09 Q1020 NOSIG
過去の天気等 Google飛行場航空写真 Wunderground天気予報

過去48時間のMETAR

飛行場予報(TAF)
発表時間: 2/27 23:20 CST (2/27 15:20 UTC)
予報対象時間: 28日2時 CST ~ 1日2時 CST
風向・風速北北東 4m/s
視程10km以上
なし
28日10時 CST ~ 28日11時 CST に徐々に
風向・風速北西 5m/s
TAF ZBAA 271520Z 2718/2818 02004MPS CAVOK TX15/2807Z TNM01/21Z
BECMG 2802/2803 32005MPS